DAAJ/DJG METAR and TAF weather

Enter ICAO airport designator
Station Type Date Time Source
DAAJ METAR 2018/04/20 08:00 UTC NOAA

DAAJ 200800Z 01010KT 5000 NSC 28/14 Q1015


Station Type Date Time Source
DAAJ Decoded METAR 2018/04/20 08:00 UTC NOAA

Djanet, Algeria (DAAJ) 24-33N 009-28E 1054M
Apr 20, 2018 - 04:00 AM EDT / 2018.04.20 0800 UTC
Wind: from the N (010 degrees) at 12 MPH (10 KT):0
Visibility: 3 mile(s):0
Temperature: 82 F (28 C)
Dew Point: 57 F (14 C)
Relative Humidity: 42%
Pressure (altimeter): 29.97 in. Hg (1015 hPa)
ob: DAAJ 200800Z 01010KT 5000 NSC 28/14 Q1015
cycle: 8

Station Type Date Time Source
DAAJ TAF 2018/04/20 06:33 UTC NOAA

TAF DAAJ 200500Z 2006/2106 06008KT 8000 NSC
BECMG 2011/1214 22012KT
BECMG 2018/2021 06010KT


Example: see airport list